sensor_id;sensor_type;location;lat;lon;timestamp;temperature;humidity
2639;DHT22;1329;51.384;7.122;2023-02-15T00:01:15;5.40;99.90
2639;DHT22;1329;51.384;7.122;2023-02-15T00:03:44;5.40;99.90
2639;DHT22;1329;51.384;7.122;2023-02-15T00:06:11;5.40;99.90
2639;DHT22;1329;51.384;7.122;2023-02-15T00:08:38;5.40;99.90
2639;DHT22;1329;51.384;7.122;2023-02-15T00:11:06;5.40;99.90
2639;DHT22;1329;51.384;7.122;2023-02-15T00:13:33;5.40;99.90
2639;DHT22;1329;51.384;7.122;2023-02-15T00:16:02;5.40;99.90
2639;DHT22;1329;51.384;7.122;2023-02-15T00:18:29;5.40;99.90
2639;DHT22;1329;51.384;7.122;2023-02-15T00:21:02;5.40;99.90
2639;DHT22;1329;51.384;7.122;2023-02-15T00:23:30;5.40;99.90
2639;DHT22;1329;51.384;7.122;2023-02-15T00:26:05;5.30;99.90
2639;DHT22;1329;51.384;7.122;2023-02-15T00:28:33;5.30;99.90
2639;DHT22;1329;51.384;7.122;2023-02-15T00:31:05;5.40;99.90
2639;DHT22;1329;51.384;7.122;2023-02-15T00:33:33;5.30;99.90
2639;DHT22;1329;51.384;7.122;2023-02-15T00:36:03;5.30;99.90
2639;DHT22;1329;51.384;7.122;2023-02-15T00:38:32;5.30;99.90
2639;DHT22;1329;51.384;7.122;2023-02-15T00:41:01;5.30;99.90
2639;DHT22;1329;51.384;7.122;2023-02-15T00:43:30;5.20;99.90
2639;DHT22;1329;51.384;7.122;2023-02-15T00:45:58;5.20;99.90
2639;DHT22;1329;51.384;7.122;2023-02-15T00:48:26;5.20;99.90
2639;DHT22;1329;51.384;7.122;2023-02-15T00:50:55;5.20;99.90
2639;DHT22;1329;51.384;7.122;2023-02-15T00:53:24;5.20;99.90
2639;DHT22;1329;51.384;7.122;2023-02-15T00:55:52;5.10;99.90
2639;DHT22;1329;51.384;7.122;2023-02-15T00:58:19;5.10;99.90
2639;DHT22;1329;51.384;7.122;2023-02-15T01:00:47;5.10;99.90
2639;DHT22;1329;51.384;7.122;2023-02-15T01:03:16;5.10;99.90
2639;DHT22;1329;51.384;7.122;2023-02-15T01:05:44;5.10;99.90
2639;DHT22;1329;51.384;7.122;2023-02-15T01:08:11;5.10;99.90
2639;DHT22;1329;51.384;7.122;2023-02-15T01:10:39;5.10;99.90
2639;DHT22;1329;51.384;7.122;2023-02-15T01:13:06;5.10;99.90
2639;DHT22;1329;51.384;7.122;2023-02-15T01:15:34;5.00;99.90
2639;DHT22;1329;51.384;7.122;2023-02-15T01:18:02;5.10;99.90
2639;DHT22;1329;51.384;7.122;2023-02-15T01:20:35;5.00;99.90
2639;DHT22;1329;51.384;7.122;2023-02-15T01:23:08;5.00;99.90
2639;DHT22;1329;51.384;7.122;2023-02-15T01:25:36;5.00;99.90
2639;DHT22;1329;51.384;7.122;2023-02-15T01:28:05;5.00;99.90
2639;DHT22;1329;51.384;7.122;2023-02-15T01:30:32;5.00;99.90
2639;DHT22;1329;51.384;7.122;2023-02-15T01:32:59;4.90;99.90
2639;DHT22;1329;51.384;7.122;2023-02-15T01:35:27;4.90;99.90
2639;DHT22;1329;51.384;7.122;2023-02-15T01:37:55;4.90;99.90
2639;DHT22;1329;51.384;7.122;2023-02-15T01:40:23;4.90;99.90
2639;DHT22;1329;51.384;7.122;2023-02-15T01:42:51;4.80;99.90
2639;DHT22;1329;51.384;7.122;2023-02-15T01:45:23;4.80;99.90
2639;DHT22;1329;51.384;7.122;2023-02-15T01:47:58;4.80;99.90
2639;DHT22;1329;51.384;7.122;2023-02-15T01:50:30;4.80;99.90
2639;DHT22;1329;51.384;7.122;2023-02-15T01:53:05;4.70;99.90
2639;DHT22;1329;51.384;7.122;2023-02-15T01:55:36;4.70;99.90
2639;DHT22;1329;51.384;7.122;2023-02-15T01:58:06;4.70;99.90
2639;DHT22;1329;51.384;7.122;2023-02-15T02:00:38;4.70;99.90
2639;DHT22;1329;51.384;7.122;2023-02-15T02:03:05;4.70;99.90
2639;DHT22;1329;51.384;7.122;2023-02-15T02:05:32;4.70;99.90
2639;DHT22;1329;51.384;7.122;2023-02-15T02:08:02;4.70;99.90
2639;DHT22;1329;51.384;7.122;2023-02-15T02:10:29;4.70;99.90
2639;DHT22;1329;51.384;7.122;2023-02-15T02:13:00;4.60;99.90
2639;DHT22;1329;51.384;7.122;2023-02-15T02:15:37;4.60;99.90
2639;DHT22;1329;51.384;7.122;2023-02-15T02:18:21;4.60;99.90
2639;DHT22;1329;51.384;7.122;2023-02-15T02:21:08;4.60;99.90
2639;DHT22;1329;51.384;7.122;2023-02-15T02:24:12;4.60;99.90
2639;DHT22;1329;51.384;7.122;2023-02-15T02:36:33;4.50;99.90
2639;DHT22;1329;51.384;7.122;2023-02-15T02:39:12;4.50;99.90
2639;DHT22;1329;51.384;7.122;2023-02-15T02:41:50;4.50;99.90
2639;DHT22;1329;51.384;7.122;2023-02-15T02:44:24;4.40;99.90
2639;DHT22;1329;51.384;7.122;2023-02-15T02:46:57;4.40;99.90
2639;DHT22;1329;51.384;7.122;2023-02-15T02:49:32;4.40;99.90
2639;DHT22;1329;51.384;7.122;2023-02-15T02:52:01;4.30;99.90
2639;DHT22;1329;51.384;7.122;2023-02-15T02:54:30;4.30;99.90
2639;DHT22;1329;51.384;7.122;2023-02-15T02:57:01;4.40;99.90
2639;DHT22;1329;51.384;7.122;2023-02-15T02:59:33;4.40;99.90
2639;DHT22;1329;51.384;7.122;2023-02-15T03:02:05;4.40;99.90
2639;DHT22;1329;51.384;7.122;2023-02-15T03:04:42;4.30;99.90
2639;DHT22;1329;51.384;7.122;2023-02-15T03:07:14;4.30;99.90
2639;DHT22;1329;51.384;7.122;2023-02-15T03:09:50;4.30;99.90
2639;DHT22;1329;51.384;7.122;2023-02-15T03:12:20;4.30;99.90
2639;DHT22;1329;51.384;7.122;2023-02-15T03:14:54;4.30;99.90
2639;DHT22;1329;51.384;7.122;2023-02-15T03:17:26;4.30;99.90
2639;DHT22;1329;51.384;7.122;2023-02-15T03:19:57;4.30;99.90
2639;DHT22;1329;51.384;7.122;2023-02-15T03:22:30;4.40;99.90
2639;DHT22;1329;51.384;7.122;2023-02-15T03:25:05;4.40;99.90
2639;DHT22;1329;51.384;7.122;2023-02-15T03:27:42;4.40;99.90
2639;DHT22;1329;51.384;7.122;2023-02-15T03:30:13;4.40;99.90
2639;DHT22;1329;51.384;7.122;2023-02-15T03:32:43;4.30;99.90
2639;DHT22;1329;51.384;7.122;2023-02-15T03:35:12;4.30;99.90
2639;DHT22;1329;51.384;7.122;2023-02-15T03:37:42;4.30;99.90
2639;DHT22;1329;51.384;7.122;2023-02-15T03:40:18;4.30;99.90
2639;DHT22;1329;51.384;7.122;2023-02-15T03:43:12;4.30;99.90
2639;DHT22;1329;51.384;7.122;2023-02-15T03:45:45;4.20;99.90
2639;DHT22;1329;51.384;7.122;2023-02-15T03:48:23;4.20;99.90
2639;DHT22;1329;51.384;7.122;2023-02-15T03:50:55;4.20;99.90
2639;DHT22;1329;51.384;7.122;2023-02-15T03:53:43;4.20;99.90
2639;DHT22;1329;51.384;7.122;2023-02-15T03:56:12;4.20;99.90
2639;DHT22;1329;51.384;7.122;2023-02-15T03:58:39;4.20;99.90
2639;DHT22;1329;51.384;7.122;2023-02-15T04:01:27;4.20;99.90
2639;DHT22;1329;51.384;7.122;2023-02-15T04:04:18;4.20;99.90
2639;DHT22;1329;51.384;7.122;2023-02-15T04:06:48;4.20;99.90
2639;DHT22;1329;51.384;7.122;2023-02-15T04:09:15;4.20;99.90
2639;DHT22;1329;51.384;7.122;2023-02-15T04:12:00;4.20;99.90
2639;DHT22;1329;51.384;7.122;2023-02-15T04:14:27;4.20;99.90
2639;DHT22;1329;51.384;7.122;2023-02-15T04:17:12;4.20;99.90
2639;DHT22;1329;51.384;7.122;2023-02-15T04:19:39;4.20;99.90
2639;DHT22;1329;51.384;7.122;2023-02-15T04:22:25;4.20;99.90
2639;DHT22;1329;51.384;7.122;2023-02-15T04:25:10;4.20;99.90
2639;DHT22;1329;51.384;7.122;2023-02-15T04:27:38;4.20;99.90
2639;DHT22;1329;51.384;7.122;2023-02-15T04:30:07;4.20;99.90
2639;DHT22;1329;51.384;7.122;2023-02-15T04:32:35;4.10;99.90
2639;DHT22;1329;51.384;7.122;2023-02-15T04:35:04;4.10;99.90
2639;DHT22;1329;51.384;7.122;2023-02-15T04:37:33;4.10;99.90
2639;DHT22;1329;51.384;7.122;2023-02-15T04:40:00;4.10;99.90
2639;DHT22;1329;51.384;7.122;2023-02-15T04:42:28;4.10;99.90
2639;DHT22;1329;51.384;7.122;2023-02-15T04:44:55;4.10;99.90
2639;DHT22;1329;51.384;7.122;2023-02-15T04:47:23;4.00;99.90
2639;DHT22;1329;51.384;7.122;2023-02-15T04:49:50;4.10;99.90
2639;DHT22;1329;51.384;7.122;2023-02-15T04:52:20;4.10;99.90
2639;DHT22;1329;51.384;7.122;2023-02-15T04:54:49;4.00;99.90
2639;DHT22;1329;51.384;7.122;2023-02-15T04:57:17;4.00;99.90
2639;DHT22;1329;51.384;7.122;2023-02-15T04:59:44;4.00;99.90
2639;DHT22;1329;51.384;7.122;2023-02-15T05:02:12;4.00;99.90
2639;DHT22;1329;51.384;7.122;2023-02-15T05:04:40;4.00;99.90
2639;DHT22;1329;51.384;7.122;2023-02-15T05:07:07;4.00;99.90
2639;DHT22;1329;51.384;7.122;2023-02-15T05:09:34;4.00;99.90
2639;DHT22;1329;51.384;7.122;2023-02-15T05:12:04;4.00;99.90
2639;DHT22;1329;51.384;7.122;2023-02-15T05:14:31;4.00;99.90
2639;DHT22;1329;51.384;7.122;2023-02-15T05:16:58;3.90;99.90
2639;DHT22;1329;51.384;7.122;2023-02-15T05:19:28;3.90;99.90
2639;DHT22;1329;51.384;7.122;2023-02-15T05:22:00;3.90;99.90
2639;DHT22;1329;51.384;7.122;2023-02-15T05:24:30;3.90;99.90
2639;DHT22;1329;51.384;7.122;2023-02-15T05:27:16;3.90;99.90
2639;DHT22;1329;51.384;7.122;2023-02-15T05:30:00;3.90;99.90
2639;DHT22;1329;51.384;7.122;2023-02-15T05:32:28;3.80;99.90
2639;DHT22;1329;51.384;7.122;2023-02-15T05:34:58;3.80;99.90
2639;DHT22;1329;51.384;7.122;2023-02-15T05:37:26;3.80;99.90
2639;DHT22;1329;51.384;7.122;2023-02-15T05:39:53;3.80;99.90
2639;DHT22;1329;51.384;7.122;2023-02-15T05:42:23;3.80;99.90
2639;DHT22;1329;51.384;7.122;2023-02-15T05:44:50;3.80;99.90
2639;DHT22;1329;51.384;7.122;2023-02-15T05:47:17;3.80;99.90
2639;DHT22;1329;51.384;7.122;2023-02-15T05:49:44;3.70;99.90
2639;DHT22;1329;51.384;7.122;2023-02-15T05:52:14;3.70;99.90
2639;DHT22;1329;51.384;7.122;2023-02-15T05:54:42;3.70;99.90
2639;DHT22;1329;51.384;7.122;2023-02-15T05:57:09;3.70;99.90
2639;DHT22;1329;51.384;7.122;2023-02-15T05:59:38;3.70;99.90
2639;DHT22;1329;51.384;7.122;2023-02-15T06:02:05;3.70;99.90
2639;DHT22;1329;51.384;7.122;2023-02-15T06:04:32;3.70;99.90
2639;DHT22;1329;51.384;7.122;2023-02-15T06:06:59;3.70;99.90
2639;DHT22;1329;51.384;7.122;2023-02-15T06:09:29;3.70;99.90
2639;DHT22;1329;51.384;7.122;2023-02-15T06:11:56;3.70;99.90
2639;DHT22;1329;51.384;7.122;2023-02-15T06:14:26;3.70;99.90
2639;DHT22;1329;51.384;7.122;2023-02-15T06:16:58;3.70;99.90
2639;DHT22;1329;51.384;7.122;2023-02-15T06:19:27;3.70;99.90
2639;DHT22;1329;51.384;7.122;2023-02-15T06:21:54;3.70;99.90
2639;DHT22;1329;51.384;7.122;2023-02-15T06:24:22;3.70;99.90
2639;DHT22;1329;51.384;7.122;2023-02-15T06:26:51;3.70;99.90
2639;DHT22;1329;51.384;7.122;2023-02-15T06:29:22;3.70;99.90
2639;DHT22;1329;51.384;7.122;2023-02-15T06:31:50;3.70;99.90
2639;DHT22;1329;51.384;7.122;2023-02-15T06:34:24;3.70;99.90
2639;DHT22;1329;51.384;7.122;2023-02-15T06:36:51;3.70;99.90
2639;DHT22;1329;51.384;7.122;2023-02-15T06:39:18;3.70;99.90
2639;DHT22;1329;51.384;7.122;2023-02-15T06:41:46;3.70;99.90
2639;DHT22;1329;51.384;7.122;2023-02-15T06:44:16;3.70;99.90
2639;DHT22;1329;51.384;7.122;2023-02-15T06:46:43;3.70;99.90
2639;DHT22;1329;51.384;7.122;2023-02-15T06:49:12;3.70;99.90
2639;DHT22;1329;51.384;7.122;2023-02-15T06:51:42;3.70;99.90
2639;DHT22;1329;51.384;7.122;2023-02-15T06:54:09;3.70;99.90
2639;DHT22;1329;51.384;7.122;2023-02-15T06:56:37;3.70;99.90
2639;DHT22;1329;51.384;7.122;2023-02-15T06:59:07;3.70;99.90
2639;DHT22;1329;51.384;7.122;2023-02-15T07:01:35;3.80;99.90
2639;DHT22;1329;51.384;7.122;2023-02-15T07:04:04;3.70;99.90
2639;DHT22;1329;51.384;7.122;2023-02-15T07:06:36;3.80;99.90
2639;DHT22;1329;51.384;7.122;2023-02-15T07:09:07;3.80;99.90
2639;DHT22;1329;51.384;7.122;2023-02-15T07:11:34;3.80;99.90
2639;DHT22;1329;51.384;7.122;2023-02-15T07:14:19;3.80;99.90
2639;DHT22;1329;51.384;7.122;2023-02-15T07:16:49;3.80;99.90
2639;DHT22;1329;51.384;7.122;2023-02-15T07:19:18;3.80;99.90
2639;DHT22;1329;51.384;7.122;2023-02-15T07:21:49;3.90;99.90
2639;DHT22;1329;51.384;7.122;2023-02-15T07:24:18;3.90;99.90
2639;DHT22;1329;51.384;7.122;2023-02-15T07:26:45;3.90;99.90
2639;DHT22;1329;51.384;7.122;2023-02-15T07:29:13;3.90;99.90
2639;DHT22;1329;51.384;7.122;2023-02-15T07:31:46;3.90;99.90
2639;DHT22;1329;51.384;7.122;2023-02-15T07:34:14;3.90;99.90
2639;DHT22;1329;51.384;7.122;2023-02-15T07:36:43;3.90;99.90
2639;DHT22;1329;51.384;7.122;2023-02-15T07:39:12;3.90;99.90
2639;DHT22;1329;51.384;7.122;2023-02-15T07:41:40;4.00;99.90
2639;DHT22;1329;51.384;7.122;2023-02-15T07:44:11;4.00;99.90
2639;DHT22;1329;51.384;7.122;2023-02-15T07:46:39;4.00;99.90
2639;DHT22;1329;51.384;7.122;2023-02-15T07:49:06;4.00;99.90
2639;DHT22;1329;51.384;7.122;2023-02-15T07:51:33;4.10;99.90
2639;DHT22;1329;51.384;7.122;2023-02-15T07:54:01;4.10;99.90
2639;DHT22;1329;51.384;7.122;2023-02-15T07:56:30;4.10;99.90
2639;DHT22;1329;51.384;7.122;2023-02-15T07:59:03;4.10;99.90
2639;DHT22;1329;51.384;7.122;2023-02-15T08:01:32;4.20;99.90
2639;DHT22;1329;51.384;7.122;2023-02-15T08:04:01;4.20;99.90
2639;DHT22;1329;51.384;7.122;2023-02-15T08:06:31;4.30;99.90
2639;DHT22;1329;51.384;7.122;2023-02-15T08:09:00;4.30;99.90
2639;DHT22;1329;51.384;7.122;2023-02-15T08:11:30;4.30;99.90
2639;DHT22;1329;51.384;7.122;2023-02-15T08:14:06;4.30;99.90
2639;DHT22;1329;51.384;7.122;2023-02-15T08:16:36;4.40;99.90
2639;DHT22;1329;51.384;7.122;2023-02-15T08:19:16;4.40;99.90
2639;DHT22;1329;51.384;7.122;2023-02-15T08:21:45;4.40;99.90
2639;DHT22;1329;51.384;7.122;2023-02-15T08:24:17;4.50;99.90
2639;DHT22;1329;51.384;7.122;2023-02-15T08:26:47;4.50;99.90
2639;DHT22;1329;51.384;7.122;2023-02-15T08:29:15;4.50;99.90
2639;DHT22;1329;51.384;7.122;2023-02-15T08:31:43;4.60;99.90
2639;DHT22;1329;51.384;7.122;2023-02-15T08:34:15;4.60;99.90
2639;DHT22;1329;51.384;7.122;2023-02-15T08:36:44;4.70;99.90
2639;DHT22;1329;51.384;7.122;2023-02-15T08:39:12;4.70;99.90
2639;DHT22;1329;51.384;7.122;2023-02-15T08:41:43;4.70;99.90
2639;DHT22;1329;51.384;7.122;2023-02-15T08:44:14;4.80;99.90
2639;DHT22;1329;51.384;7.122;2023-02-15T08:46:44;4.80;99.90
2639;DHT22;1329;51.384;7.122;2023-02-15T08:49:16;4.90;99.90
2639;DHT22;1329;51.384;7.122;2023-02-15T08:51:44;4.90;99.90
2639;DHT22;1329;51.384;7.122;2023-02-15T08:54:15;5.00;99.90
2639;DHT22;1329;51.384;7.122;2023-02-15T08:56:44;5.00;99.90
2639;DHT22;1329;51.384;7.122;2023-02-15T08:59:15;5.00;99.90
2639;DHT22;1329;51.384;7.122;2023-02-15T09:01:44;5.10;99.90
2639;DHT22;1329;51.384;7.122;2023-02-15T09:04:12;5.10;99.90
2639;DHT22;1329;51.384;7.122;2023-02-15T09:06:41;5.20;99.90
2639;DHT22;1329;51.384;7.122;2023-02-15T09:09:15;5.30;99.90
2639;DHT22;1329;51.384;7.122;2023-02-15T09:11:46;5.30;99.90
2639;DHT22;1329;51.384;7.122;2023-02-15T09:14:19;5.40;99.90
2639;DHT22;1329;51.384;7.122;2023-02-15T09:16:52;5.50;99.90
2639;DHT22;1329;51.384;7.122;2023-02-15T09:19:21;5.50;99.90
2639;DHT22;1329;51.384;7.122;2023-02-15T09:21:49;5.50;99.90
2639;DHT22;1329;51.384;7.122;2023-02-15T09:24:17;5.60;99.90
2639;DHT22;1329;51.384;7.122;2023-02-15T09:26:46;5.70;99.90
2639;DHT22;1329;51.384;7.122;2023-02-15T09:29:19;5.80;99.90
2639;DHT22;1329;51.384;7.122;2023-02-15T09:31:49;5.80;99.90
2639;DHT22;1329;51.384;7.122;2023-02-15T09:34:20;5.90;99.90
2639;DHT22;1329;51.384;7.122;2023-02-15T09:36:48;6.00;99.90
2639;DHT22;1329;51.384;7.122;2023-02-15T09:39:17;6.10;99.90
2639;DHT22;1329;51.384;7.122;2023-02-15T09:42:11;6.20;99.90
2639;DHT22;1329;51.384;7.122;2023-02-15T09:45:12;6.30;99.90
2639;DHT22;1329;51.384;7.122;2023-02-15T09:48:27;6.40;99.90
2639;DHT22;1329;51.384;7.122;2023-02-15T09:51:12;6.60;99.90
2639;DHT22;1329;51.384;7.122;2023-02-15T09:54:09;6.70;99.90
2639;DHT22;1329;51.384;7.122;2023-02-15T09:56:47;6.70;99.90
2639;DHT22;1329;51.384;7.122;2023-02-15T09:59:22;6.90;99.90
2639;DHT22;1329;51.384;7.122;2023-02-15T10:02:06;7.00;99.90
2639;DHT22;1329;51.384;7.122;2023-02-15T10:04:59;7.00;99.90
2639;DHT22;1329;51.384;7.122;2023-02-15T10:07:48;7.10;99.90
2639;DHT22;1329;51.384;7.122;2023-02-15T10:10:34;7.20;99.90
2639;DHT22;1329;51.384;7.122;2023-02-15T10:13:20;7.20;99.90
2639;DHT22;1329;51.384;7.122;2023-02-15T10:16:08;7.30;99.90
2639;DHT22;1329;51.384;7.122;2023-02-15T10:18:52;7.40;99.90
2639;DHT22;1329;51.384;7.122;2023-02-15T10:21:39;7.50;99.90
2639;DHT22;1329;51.384;7.122;2023-02-15T10:24:41;7.60;99.90
2639;DHT22;1329;51.384;7.122;2023-02-15T10:27:19;7.70;99.90
2639;DHT22;1329;51.384;7.122;2023-02-15T10:29:57;7.90;99.90
2639;DHT22;1329;51.384;7.122;2023-02-15T10:32:35;7.90;99.90
2639;DHT22;1329;51.384;7.122;2023-02-15T10:35:15;8.00;99.90
2639;DHT22;1329;51.384;7.122;2023-02-15T10:37:56;8.10;99.90
2639;DHT22;1329;51.384;7.122;2023-02-15T10:40:35;8.20;99.90
2639;DHT22;1329;51.384;7.122;2023-02-15T10:43:33;8.30;99.90
2639;DHT22;1329;51.384;7.122;2023-02-15T10:46:13;8.40;99.90
2639;DHT22;1329;51.384;7.122;2023-02-15T10:48:57;8.50;99.90
2639;DHT22;1329;51.384;7.122;2023-02-15T10:51:42;8.60;99.90
2639;DHT22;1329;51.384;7.122;2023-02-15T10:54:26;8.70;99.90
2639;DHT22;1329;51.384;7.122;2023-02-15T10:57:04;8.90;99.90
2639;DHT22;1329;51.384;7.122;2023-02-15T10:59:56;9.00;99.90
2639;DHT22;1329;51.384;7.122;2023-02-15T11:02:39;9.10;99.90
2639;DHT22;1329;51.384;7.122;2023-02-15T11:05:24;9.20;99.90
2639;DHT22;1329;51.384;7.122;2023-02-15T11:08:03;9.30;99.90
2639;DHT22;1329;51.384;7.122;2023-02-15T11:10:37;9.30;99.90
2639;DHT22;1329;51.384;7.122;2023-02-15T11:13:11;9.40;99.90
2639;DHT22;1329;51.384;7.122;2023-02-15T11:15:44;9.40;99.90
2639;DHT22;1329;51.384;7.122;2023-02-15T11:18:17;9.40;99.90
2639;DHT22;1329;51.384;7.122;2023-02-15T11:20:53;9.60;99.90
2639;DHT22;1329;51.384;7.122;2023-02-15T11:23:25;9.70;99.90
2639;DHT22;1329;51.384;7.122;2023-02-15T11:25:58;9.70;99.90
2639;DHT22;1329;51.384;7.122;2023-02-15T11:28:31;9.80;99.90
2639;DHT22;1329;51.384;7.122;2023-02-15T11:31:10;9.80;99.90
2639;DHT22;1329;51.384;7.122;2023-02-15T11:33:42;9.90;99.90
2639;DHT22;1329;51.384;7.122;2023-02-15T11:36:17;9.90;99.90
2639;DHT22;1329;51.384;7.122;2023-02-15T11:39:03;9.90;99.90
2639;DHT22;1329;51.384;7.122;2023-02-15T11:41:36;10.00;99.90
2639;DHT22;1329;51.384;7.122;2023-02-15T11:44:08;10.10;99.90
2639;DHT22;1329;51.384;7.122;2023-02-15T11:46:39;10.20;99.90
2639;DHT22;1329;51.384;7.122;2023-02-15T11:49:19;10.20;99.90
2639;DHT22;1329;51.384;7.122;2023-02-15T11:51:49;10.30;99.90
2639;DHT22;1329;51.384;7.122;2023-02-15T11:54:22;10.30;99.90
2639;DHT22;1329;51.384;7.122;2023-02-15T11:56:55;10.40;99.90
2639;DHT22;1329;51.384;7.122;2023-02-15T11:59:29;10.50;99.90
2639;DHT22;1329;51.384;7.122;2023-02-15T12:01:58;10.50;99.90
2639;DHT22;1329;51.384;7.122;2023-02-15T12:04:30;10.50;99.90
2639;DHT22;1329;51.384;7.122;2023-02-15T12:07:09;10.50;99.90
2639;DHT22;1329;51.384;7.122;2023-02-15T12:09:49;10.70;99.90
2639;DHT22;1329;51.384;7.122;2023-02-15T12:12:24;10.60;99.90
2639;DHT22;1329;51.384;7.122;2023-02-15T12:14:56;10.70;99.90
2639;DHT22;1329;51.384;7.122;2023-02-15T12:17:26;10.80;99.90
2639;DHT22;1329;51.384;7.122;2023-02-15T12:19:56;10.80;99.90
2639;DHT22;1329;51.384;7.122;2023-02-15T12:22:27;10.80;99.90
2639;DHT22;1329;51.384;7.122;2023-02-15T12:25:00;10.90;99.90
2639;DHT22;1329;51.384;7.122;2023-02-15T12:27:33;10.90;99.90
2639;DHT22;1329;51.384;7.122;2023-02-15T12:30:04;11.00;99.90
2639;DHT22;1329;51.384;7.122;2023-02-15T12:32:52;11.00;99.90
2639;DHT22;1329;51.384;7.122;2023-02-15T12:35:26;11.10;99.90
2639;DHT22;1329;51.384;7.122;2023-02-15T12:37:57;11.10;99.90
2639;DHT22;1329;51.384;7.122;2023-02-15T12:40:33;11.10;99.90
2639;DHT22;1329;51.384;7.122;2023-02-15T12:43:02;11.20;99.90
2639;DHT22;1329;51.384;7.122;2023-02-15T12:45:35;11.20;99.90
2639;DHT22;1329;51.384;7.122;2023-02-15T12:48:14;11.20;99.90
2639;DHT22;1329;51.384;7.122;2023-02-15T12:50:43;11.30;99.90
2639;DHT22;1329;51.384;7.122;2023-02-15T12:53:15;11.40;99.90
2639;DHT22;1329;51.384;7.122;2023-02-15T12:55:53;11.40;99.90
2639;DHT22;1329;51.384;7.122;2023-02-15T12:58:22;11.40;99.90
2639;DHT22;1329;51.384;7.122;2023-02-15T13:01:03;11.50;99.90
2639;DHT22;1329;51.384;7.122;2023-02-15T13:03:38;11.50;99.90
2639;DHT22;1329;51.384;7.122;2023-02-15T13:06:18;11.50;99.90
2639;DHT22;1329;51.384;7.122;2023-02-15T13:08:48;11.50;99.90
2639;DHT22;1329;51.384;7.122;2023-02-15T13:11:24;11.50;99.90
2639;DHT22;1329;51.384;7.122;2023-02-15T13:14:00;11.50;99.90
2639;DHT22;1329;51.384;7.122;2023-02-15T13:16:30;11.60;99.90
2639;DHT22;1329;51.384;7.122;2023-02-15T13:19:04;11.60;99.90
2639;DHT22;1329;51.384;7.122;2023-02-15T13:21:36;11.60;99.90
2639;DHT22;1329;51.384;7.122;2023-02-15T13:24:10;11.70;99.90
2639;DHT22;1329;51.384;7.122;2023-02-15T13:26:47;11.70;99.90
2639;DHT22;1329;51.384;7.122;2023-02-15T13:29:21;11.80;99.90
2639;DHT22;1329;51.384;7.122;2023-02-15T13:31:50;11.80;99.90
2639;DHT22;1329;51.384;7.122;2023-02-15T13:34:22;11.80;99.90
2639;DHT22;1329;51.384;7.122;2023-02-15T13:36:54;11.90;99.90
2639;DHT22;1329;51.384;7.122;2023-02-15T13:39:28;12.00;99.90
2639;DHT22;1329;51.384;7.122;2023-02-15T13:42:14;12.00;99.90
2639;DHT22;1329;51.384;7.122;2023-02-15T13:44:58;12.00;99.90
2639;DHT22;1329;51.384;7.122;2023-02-15T13:47:37;12.10;99.90
2639;DHT22;1329;51.384;7.122;2023-02-15T13:50:23;12.20;99.90
2639;DHT22;1329;51.384;7.122;2023-02-15T13:53:24;12.30;99.90
2639;DHT22;1329;51.384;7.122;2023-02-15T13:56:16;12.30;99.90
2639;DHT22;1329;51.384;7.122;2023-02-15T13:59:02;12.40;99.90
2639;DHT22;1329;51.384;7.122;2023-02-15T14:01:41;12.40;99.90
2639;DHT22;1329;51.384;7.122;2023-02-15T14:04:25;12.40;99.90
2639;DHT22;1329;51.384;7.122;2023-02-15T14:07:20;12.50;99.90
2639;DHT22;1329;51.384;7.122;2023-02-15T14:10:02;12.60;99.90
2639;DHT22;1329;51.384;7.122;2023-02-15T14:12:55;12.60;99.90
2639;DHT22;1329;51.384;7.122;2023-02-15T14:15:37;12.60;99.90
2639;DHT22;1329;51.384;7.122;2023-02-15T14:18:17;12.70;99.90
2639;DHT22;1329;51.384;7.122;2023-02-15T14:20:58;12.70;99.90
2639;DHT22;1329;51.384;7.122;2023-02-15T14:23:52;12.80;99.90
2639;DHT22;1329;51.384;7.122;2023-02-15T14:26:38;12.80;95.80
2639;DHT22;1329;51.384;7.122;2023-02-15T14:29:20;12.90;99.90
2639;DHT22;1329;51.384;7.122;2023-02-15T14:32:05;12.90;99.30
2639;DHT22;1329;51.384;7.122;2023-02-15T14:34:44;12.90;99.70
2639;DHT22;1329;51.384;7.122;2023-02-15T14:37:19;13.00;99.90
2639;DHT22;1329;51.384;7.122;2023-02-15T14:39:57;13.00;99.90
2639;DHT22;1329;51.384;7.122;2023-02-15T14:42:48;13.00;96.60
2639;DHT22;1329;51.384;7.122;2023-02-15T14:45:25;13.00;99.20
2639;DHT22;1329;51.384;7.122;2023-02-15T14:48:03;13.00;98.00
2639;DHT22;1329;51.384;7.122;2023-02-15T14:50:52;13.00;95.10
2639;DHT22;1329;51.384;7.122;2023-02-15T14:53:36;12.90;80.80
2639;DHT22;1329;51.384;7.122;2023-02-15T14:56:24;12.90;77.00
2639;DHT22;1329;51.384;7.122;2023-02-15T14:59:11;12.80;84.90
2639;DHT22;1329;51.384;7.122;2023-02-15T15:01:41;12.80;88.30
2639;DHT22;1329;51.384;7.122;2023-02-15T15:04:12;12.80;99.90
2639;DHT22;1329;51.384;7.122;2023-02-15T15:06:43;12.70;94.70
2639;DHT22;1329;51.384;7.122;2023-02-15T15:09:12;12.70;99.20
2639;DHT22;1329;51.384;7.122;2023-02-15T15:11:50;12.60;98.50
2639;DHT22;1329;51.384;7.122;2023-02-15T15:14:44;12.60;99.60
2639;DHT22;1329;51.384;7.122;2023-02-15T15:17:13;12.50;77.50
2639;DHT22;1329;51.384;7.122;2023-02-15T15:20:12;12.50;99.90
2639;DHT22;1329;51.384;7.122;2023-02-15T15:22:42;12.50;75.30
2639;DHT22;1329;51.384;7.122;2023-02-15T15:25:40;12.50;99.90
2639;DHT22;1329;51.384;7.122;2023-02-15T15:28:09;12.50;85.40
2639;DHT22;1329;51.384;7.122;2023-02-15T15:31:02;12.40;99.90
2639;DHT22;1329;51.384;7.122;2023-02-15T15:40:41;12.30;92.30
2639;DHT22;1329;51.384;7.122;2023-02-15T15:47:20;12.30;93.00
2639;DHT22;1329;51.384;7.122;2023-02-15T15:49:56;12.20;90.70
2639;DHT22;1329;51.384;7.122;2023-02-15T15:52:26;12.20;99.90
2639;DHT22;1329;51.384;7.122;2023-02-15T15:55:02;12.10;99.90
2639;DHT22;1329;51.384;7.122;2023-02-15T15:57:34;12.00;99.90
2639;DHT22;1329;51.384;7.122;2023-02-15T16:00:23;12.00;99.90
2639;DHT22;1329;51.384;7.122;2023-02-15T16:02:56;11.90;94.10
2639;DHT22;1329;51.384;7.122;2023-02-15T16:05:23;11.80;99.90
2639;DHT22;1329;51.384;7.122;2023-02-15T16:07:53;11.80;99.90
2639;DHT22;1329;51.384;7.122;2023-02-15T16:10:22;11.70;99.90
2639;DHT22;1329;51.384;7.122;2023-02-15T16:12:51;11.60;99.90
2639;DHT22;1329;51.384;7.122;2023-02-15T16:15:21;11.50;99.90
2639;DHT22;1329;51.384;7.122;2023-02-15T16:17:53;11.50;99.90
2639;DHT22;1329;51.384;7.122;2023-02-15T16:20:23;11.40;99.90
2639;DHT22;1329;51.384;7.122;2023-02-15T16:23:04;11.30;99.90
2639;DHT22;1329;51.384;7.122;2023-02-15T16:25:46;11.30;95.40
2639;DHT22;1329;51.384;7.122;2023-02-15T16:28:16;11.20;97.20
2639;DHT22;1329;51.384;7.122;2023-02-15T16:30:44;11.10;99.90
2639;DHT22;1329;51.384;7.122;2023-02-15T16:33:12;11.00;99.90
2639;DHT22;1329;51.384;7.122;2023-02-15T16:35:54;11.00;99.90
2639;DHT22;1329;51.384;7.122;2023-02-15T16:38:34;10.90;93.80
2639;DHT22;1329;51.384;7.122;2023-02-15T16:41:30;10.80;96.30
2639;DHT22;1329;51.384;7.122;2023-02-15T16:43:58;10.70;99.90
2639;DHT22;1329;51.384;7.122;2023-02-15T16:46:29;10.70;99.90
2639;DHT22;1329;51.384;7.122;2023-02-15T16:49:00;10.60;99.90
2639;DHT22;1329;51.384;7.122;2023-02-15T16:51:30;10.50;99.90
2639;DHT22;1329;51.384;7.122;2023-02-15T16:54:13;10.40;99.90
2639;DHT22;1329;51.384;7.122;2023-02-15T16:56:47;10.40;97.20
2639;DHT22;1329;51.384;7.122;2023-02-15T16:59:30;10.30;99.90
2639;DHT22;1329;51.384;7.122;2023-02-15T17:02:10;10.30;98.00
2639;DHT22;1329;51.384;7.122;2023-02-15T17:04:53;10.20;99.90
2639;DHT22;1329;51.384;7.122;2023-02-15T17:07:29;10.10;99.90
2639;DHT22;1329;51.384;7.122;2023-02-15T17:09:58;10.00;99.90
2639;DHT22;1329;51.384;7.122;2023-02-15T17:12:45;10.00;99.90
2639;DHT22;1329;51.384;7.122;2023-02-15T17:15:26;9.90;93.80
2639;DHT22;1329;51.384;7.122;2023-02-15T17:17:57;9.90;97.20